Terminal Aerodrome Forecast
Issued by NWS

Home | Current Version | Previous Version | Graphics & Text | Print | Product List | Glossary On
Versions: 1 2 3 4 5 6 7 8 9 10 11 12 13 14 15 16 17 18 19 20 21 22 23 24 25
945
FTUS43 KLOT 231528 AAA
TAFORD
TAF AMD
KORD 231528Z 2315/2418 VRB03KT P6SM FEW250
     FM231800 08007KT P6SM SCT250
      TEMPO 2318/2320 08011KT
     FM241400 16007KT P6SM SCT200=

USA.gov is the U.S. government's official web portal to all federal, state and local government web resources and services.